sensor_id;sensor_type;location;lat;lon;timestamp;temperature;humidity
76102;SHT30;64830;46.910;6.354;2023-01-15T00:00:57;8.17;83.33
76102;SHT30;64830;46.910;6.354;2023-01-15T00:03:23;8.20;85.29
76102;SHT30;64830;46.910;6.354;2023-01-15T00:05:48;8.17;83.54
76102;SHT30;64830;46.910;6.354;2023-01-15T00:08:14;8.17;84.18
76102;SHT30;64830;46.910;6.354;2023-01-15T00:10:39;8.18;83.94
76102;SHT30;64830;46.910;6.354;2023-01-15T00:13:05;8.21;84.06
76102;SHT30;64830;46.910;6.354;2023-01-15T00:15:30;8.22;83.89
76102;SHT30;64830;46.910;6.354;2023-01-15T00:17:55;8.22;83.83
76102;SHT30;64830;46.910;6.354;2023-01-15T00:20:21;8.25;84.04
76102;SHT30;64830;46.910;6.354;2023-01-15T00:22:46;8.28;83.93
76102;SHT30;64830;46.910;6.354;2023-01-15T00:25:12;8.32;83.66
76102;SHT30;64830;46.910;6.354;2023-01-15T00:27:56;8.37;84.03
76102;SHT30;64830;46.910;6.354;2023-01-15T00:30:22;8.37;83.71
76102;SHT30;64830;46.910;6.354;2023-01-15T00:32:48;8.39;83.91
76102;SHT30;64830;46.910;6.354;2023-01-15T00:35:16;8.41;83.67
76102;SHT30;64830;46.910;6.354;2023-01-15T00:37:42;8.45;83.59
76102;SHT30;64830;46.910;6.354;2023-01-15T00:40:08;8.45;83.84
76102;SHT30;64830;46.910;6.354;2023-01-15T00:42:34;8.48;84.02
76102;SHT30;64830;46.910;6.354;2023-01-15T00:44:59;8.49;84.01
76102;SHT30;64830;46.910;6.354;2023-01-15T00:47:32;8.48;83.77
76102;SHT30;64830;46.910;6.354;2023-01-15T00:49:57;8.49;84.01
76102;SHT30;64830;46.910;6.354;2023-01-15T00:52:23;8.53;83.78
76102;SHT30;64830;46.910;6.354;2023-01-15T00:54:48;8.52;83.99
76102;SHT30;64830;46.910;6.354;2023-01-15T00:57:13;8.53;84.35
76102;SHT30;64830;46.910;6.354;2023-01-15T00:59:39;8.55;83.92
76102;SHT30;64830;46.910;6.354;2023-01-15T01:02:04;8.55;84.14
76102;SHT30;64830;46.910;6.354;2023-01-15T01:04:30;8.52;84.26
76102;SHT30;64830;46.910;6.354;2023-01-15T01:06:55;8.55;84.05
76102;SHT30;64830;46.910;6.354;2023-01-15T01:09:21;8.55;84.39
76102;SHT30;64830;46.910;6.354;2023-01-15T01:11:48;8.56;84.29
76102;SHT30;64830;46.910;6.354;2023-01-15T01:14:14;8.53;84.23
76102;SHT30;64830;46.910;6.354;2023-01-15T01:16:40;8.52;87.73
76102;SHT30;64830;46.910;6.354;2023-01-15T01:19:09;8.55;87.78
76102;SHT30;64830;46.910;6.354;2023-01-15T01:21:36;8.52;87.62
76102;SHT30;64830;46.910;6.354;2023-01-15T01:24:02;8.55;84.74
76102;SHT30;64830;46.910;6.354;2023-01-15T01:26:28;8.53;84.39
76102;SHT30;64830;46.910;6.354;2023-01-15T01:28:55;8.55;83.91
76102;SHT30;64830;46.910;6.354;2023-01-15T01:31:21;8.56;84.15
76102;SHT30;64830;46.910;6.354;2023-01-15T01:33:52;8.55;84.42
76102;SHT30;64830;46.910;6.354;2023-01-15T01:36:19;8.52;84.33
76102;SHT30;64830;46.910;6.354;2023-01-15T01:38:47;8.53;85.52
76102;SHT30;64830;46.910;6.354;2023-01-15T01:41:17;8.53;84.41
76102;SHT30;64830;46.910;6.354;2023-01-15T01:43:59;8.52;84.82
76102;SHT30;64830;46.910;6.354;2023-01-15T01:46:27;8.49;84.53
76102;SHT30;64830;46.910;6.354;2023-01-15T01:48:58;8.46;85.13
76102;SHT30;64830;46.910;6.354;2023-01-15T01:51:26;8.45;84.90
76102;SHT30;64830;46.910;6.354;2023-01-15T01:53:53;8.42;84.98
76102;SHT30;64830;46.910;6.354;2023-01-15T01:56:19;8.41;84.95
76102;SHT30;64830;46.910;6.354;2023-01-15T01:58:49;8.39;85.39
76102;SHT30;64830;46.910;6.354;2023-01-15T02:01:16;8.37;85.55
76102;SHT30;64830;46.910;6.354;2023-01-15T02:03:42;8.37;85.15
76102;SHT30;64830;46.910;6.354;2023-01-15T02:06:08;8.35;85.52
76102;SHT30;64830;46.910;6.354;2023-01-15T02:08:35;8.37;85.38
76102;SHT30;64830;46.910;6.354;2023-01-15T02:11:04;8.35;85.55
76102;SHT30;64830;46.910;6.354;2023-01-15T02:13:41;8.38;85.50
76102;SHT30;64830;46.910;6.354;2023-01-15T02:16:29;8.38;85.39
76102;SHT30;64830;46.910;6.354;2023-01-15T02:24:21;8.38;85.59
76102;SHT30;64830;46.910;6.354;2023-01-15T02:29:46;8.41;85.49
76102;SHT30;64830;46.910;6.354;2023-01-15T02:32:18;8.39;85.39
76102;SHT30;64830;46.910;6.354;2023-01-15T02:34:51;8.42;85.57
76102;SHT30;64830;46.910;6.354;2023-01-15T02:37:23;8.41;85.42
76102;SHT30;64830;46.910;6.354;2023-01-15T02:39:50;8.44;85.40
76102;SHT30;64830;46.910;6.354;2023-01-15T02:42:18;8.41;85.34
76102;SHT30;64830;46.910;6.354;2023-01-15T02:44:48;8.44;85.50
76102;SHT30;64830;46.910;6.354;2023-01-15T02:47:19;8.45;85.53
76102;SHT30;64830;46.910;6.354;2023-01-15T02:49:47;8.46;85.87
76102;SHT30;64830;46.910;6.354;2023-01-15T02:52:21;8.44;85.56
76102;SHT30;64830;46.910;6.354;2023-01-15T02:55:10;8.42;85.42
76102;SHT30;64830;46.910;6.354;2023-01-15T02:57:37;8.42;85.56
76102;SHT30;64830;46.910;6.354;2023-01-15T03:00:08;8.42;85.54
76102;SHT30;64830;46.910;6.354;2023-01-15T03:02:41;8.41;85.82
76102;SHT30;64830;46.910;6.354;2023-01-15T03:05:10;8.41;85.79
76102;SHT30;64830;46.910;6.354;2023-01-15T03:07:50;8.41;85.71
76102;SHT30;64830;46.910;6.354;2023-01-15T03:10:17;8.44;85.55
76102;SHT30;64830;46.910;6.354;2023-01-15T03:12:46;8.44;85.80
76102;SHT30;64830;46.910;6.354;2023-01-15T03:18:44;8.44;85.22
76102;SHT30;64830;46.910;6.354;2023-01-15T03:21:18;8.46;85.32
76102;SHT30;64830;46.910;6.354;2023-01-15T03:23:49;8.45;85.24
76102;SHT30;64830;46.910;6.354;2023-01-15T03:26:15;8.48;85.31
76102;SHT30;64830;46.910;6.354;2023-01-15T03:28:42;8.48;85.26
76102;SHT30;64830;46.910;6.354;2023-01-15T03:31:08;8.48;85.26
76102;SHT30;64830;46.910;6.354;2023-01-15T03:33:34;8.50;85.18
76102;SHT30;64830;46.910;6.354;2023-01-15T03:36:00;8.50;84.80
76102;SHT30;64830;46.910;6.354;2023-01-15T03:38:34;8.50;84.98
76102;SHT30;64830;46.910;6.354;2023-01-15T03:41:05;8.52;84.84
76102;SHT30;64830;46.910;6.354;2023-01-15T03:58:45;8.55;83.70
76102;SHT30;64830;46.910;6.354;2023-01-15T04:01:17;8.56;84.04
76102;SHT30;64830;46.910;6.354;2023-01-15T04:03:45;8.59;83.72
76102;SHT30;64830;46.910;6.354;2023-01-15T04:06:12;8.60;83.70
76102;SHT30;64830;46.910;6.354;2023-01-15T04:08:41;8.62;83.47
76102;SHT30;64830;46.910;6.354;2023-01-15T04:11:07;8.62;83.46
76102;SHT30;64830;46.910;6.354;2023-01-15T04:13:32;8.67;83.16
76102;SHT30;64830;46.910;6.354;2023-01-15T04:15:58;8.69;83.08
76102;SHT30;64830;46.910;6.354;2023-01-15T04:18:23;8.67;83.06
76102;SHT30;64830;46.910;6.354;2023-01-15T04:20:49;8.70;82.64
76102;SHT30;64830;46.910;6.354;2023-01-15T04:23:14;8.72;82.71
76102;SHT30;64830;46.910;6.354;2023-01-15T04:25:40;8.76;82.13
76102;SHT30;64830;46.910;6.354;2023-01-15T04:28:06;8.75;82.14
76102;SHT30;64830;46.910;6.354;2023-01-15T04:30:33;8.80;82.54
76102;SHT30;64830;46.910;6.354;2023-01-15T04:32:58;8.83;82.40
76102;SHT30;64830;46.910;6.354;2023-01-15T04:35:24;8.81;82.08
76102;SHT30;64830;46.910;6.354;2023-01-15T04:37:56;8.83;81.99
76102;SHT30;64830;46.910;6.354;2023-01-15T04:40:22;8.86;81.92
76102;SHT30;64830;46.910;6.354;2023-01-15T04:43:09;8.86;81.76
76102;SHT30;64830;46.910;6.354;2023-01-15T04:45:53;8.87;81.38
76102;SHT30;64830;46.910;6.354;2023-01-15T04:48:18;8.86;81.65
76102;SHT30;64830;46.910;6.354;2023-01-15T04:50:44;8.90;81.48
76102;SHT30;64830;46.910;6.354;2023-01-15T04:53:09;8.90;81.47
76102;SHT30;64830;46.910;6.354;2023-01-15T04:55:35;8.91;81.29
76102;SHT30;64830;46.910;6.354;2023-01-15T04:58:00;8.88;81.12
76102;SHT30;64830;46.910;6.354;2023-01-15T05:00:26;8.91;80.70
76102;SHT30;64830;46.910;6.354;2023-01-15T05:02:51;8.91;80.27
76102;SHT30;64830;46.910;6.354;2023-01-15T05:05:16;8.94;80.05
76102;SHT30;64830;46.910;6.354;2023-01-15T05:07:42;8.96;80.28
76102;SHT30;64830;46.910;6.354;2023-01-15T05:10:08;8.97;79.96
76102;SHT30;64830;46.910;6.354;2023-01-15T05:12:33;9.01;79.88
76102;SHT30;64830;46.910;6.354;2023-01-15T05:14:59;9.01;78.92
76102;SHT30;64830;46.910;6.354;2023-01-15T05:17:24;9.05;79.60
76102;SHT30;64830;46.910;6.354;2023-01-15T05:19:49;9.08;79.07
76102;SHT30;64830;46.910;6.354;2023-01-15T05:22:15;9.12;79.04
76102;SHT30;64830;46.910;6.354;2023-01-15T05:24:40;9.15;78.72
76102;SHT30;64830;46.910;6.354;2023-01-15T05:27:06;9.18;78.62
76102;SHT30;64830;46.910;6.354;2023-01-15T05:29:31;9.20;77.72
76102;SHT30;64830;46.910;6.354;2023-01-15T05:31:56;9.22;77.90
76102;SHT30;64830;46.910;6.354;2023-01-15T05:34:22;9.21;77.97
76102;SHT30;64830;46.910;6.354;2023-01-15T05:36:47;9.22;77.75
76102;SHT30;64830;46.910;6.354;2023-01-15T05:39:13;9.24;78.23
76102;SHT30;64830;46.910;6.354;2023-01-15T05:41:39;9.25;77.80
76102;SHT30;64830;46.910;6.354;2023-01-15T05:44:26;9.27;77.41
76102;SHT30;64830;46.910;6.354;2023-01-15T05:46:54;9.25;77.03
76102;SHT30;64830;46.910;6.354;2023-01-15T05:49:22;9.27;76.86
76102;SHT30;64830;46.910;6.354;2023-01-15T05:51:48;9.28;77.07
76102;SHT30;64830;46.910;6.354;2023-01-15T05:54:19;9.27;77.22
76102;SHT30;64830;46.910;6.354;2023-01-15T05:56:45;9.29;75.87
76102;SHT30;64830;46.910;6.354;2023-01-15T05:59:11;9.31;76.39
76102;SHT30;64830;46.910;6.354;2023-01-15T06:01:37;9.28;76.24
76102;SHT30;64830;46.910;6.354;2023-01-15T06:04:04;9.31;76.08
76102;SHT30;64830;46.910;6.354;2023-01-15T06:06:30;9.27;76.40
76102;SHT30;64830;46.910;6.354;2023-01-15T06:08:56;9.25;76.24
76102;SHT30;64830;46.910;6.354;2023-01-15T06:11:22;9.27;76.31
76102;SHT30;64830;46.910;6.354;2023-01-15T06:13:47;9.25;75.69
76102;SHT30;64830;46.910;6.354;2023-01-15T06:16:13;9.27;75.54
76102;SHT30;64830;46.910;6.354;2023-01-15T06:18:39;9.28;75.43
76102;SHT30;64830;46.910;6.354;2023-01-15T06:21:06;9.27;76.08
76102;SHT30;64830;46.910;6.354;2023-01-15T06:23:32;9.22;75.57
76102;SHT30;64830;46.910;6.354;2023-01-15T06:26:06;9.27;75.87
76102;SHT30;64830;46.910;6.354;2023-01-15T06:28:32;9.29;75.37
76102;SHT30;64830;46.910;6.354;2023-01-15T06:30:58;9.32;75.05
76102;SHT30;64830;46.910;6.354;2023-01-15T06:33:23;9.32;75.20
76102;SHT30;64830;46.910;6.354;2023-01-15T06:35:49;9.29;74.87
76102;SHT30;64830;46.910;6.354;2023-01-15T06:38:14;9.34;75.35
76102;SHT30;64830;46.910;6.354;2023-01-15T06:40:40;9.32;75.14
76102;SHT30;64830;46.910;6.354;2023-01-15T06:43:05;9.35;75.16
76102;SHT30;64830;46.910;6.354;2023-01-15T06:45:51;9.35;75.10
76102;SHT30;64830;46.910;6.354;2023-01-15T06:48:34;9.34;74.51
76102;SHT30;64830;46.910;6.354;2023-01-15T06:51:00;9.32;74.76
76102;SHT30;64830;46.910;6.354;2023-01-15T06:53:25;9.35;74.41
76102;SHT30;64830;46.910;6.354;2023-01-15T06:55:51;9.31;74.62
76102;SHT30;64830;46.910;6.354;2023-01-15T06:58:16;9.32;74.55
76102;SHT30;64830;46.910;6.354;2023-01-15T07:00:42;9.35;74.64
76102;SHT30;64830;46.910;6.354;2023-01-15T07:03:09;9.32;73.62
76102;SHT30;64830;46.910;6.354;2023-01-15T07:05:37;9.32;74.81
76102;SHT30;64830;46.910;6.354;2023-01-15T07:08:03;9.31;73.72
76102;SHT30;64830;46.910;6.354;2023-01-15T07:10:28;9.25;74.17
76102;SHT30;64830;46.910;6.354;2023-01-15T07:12:54;9.15;77.18
76102;SHT30;64830;46.910;6.354;2023-01-15T07:15:19;8.72;79.03
76102;SHT30;64830;46.910;6.354;2023-01-15T07:17:45;8.25;79.83
76102;SHT30;64830;46.910;6.354;2023-01-15T07:20:10;7.83;80.71
76102;SHT30;64830;46.910;6.354;2023-01-15T07:22:36;7.59;81.34
76102;SHT30;64830;46.910;6.354;2023-01-15T07:25:02;7.36;81.13
76102;SHT30;64830;46.910;6.354;2023-01-15T07:27:27;7.11;82.43
76102;SHT30;64830;46.910;6.354;2023-01-15T07:29:53;6.89;83.16
76102;SHT30;64830;46.910;6.354;2023-01-15T07:32:18;6.71;83.75
76102;SHT30;64830;46.910;6.354;2023-01-15T07:34:44;6.55;83.88
76102;SHT30;64830;46.910;6.354;2023-01-15T07:37:09;6.48;83.81
76102;SHT30;64830;46.910;6.354;2023-01-15T07:39:35;6.41;84.52
76102;SHT30;64830;46.910;6.354;2023-01-15T07:42:00;6.28;85.33
76102;SHT30;64830;46.910;6.354;2023-01-15T07:44:52;6.21;85.29
76102;SHT30;64830;46.910;6.354;2023-01-15T07:47:37;6.17;85.63
76102;SHT30;64830;46.910;6.354;2023-01-15T07:50:23;6.09;85.26
76102;SHT30;64830;46.910;6.354;2023-01-15T07:52:48;6.00;85.27
76102;SHT30;64830;46.910;6.354;2023-01-15T07:55:14;5.92;83.68
76102;SHT30;64830;46.910;6.354;2023-01-15T07:57:40;5.79;83.22
76102;SHT30;64830;46.910;6.354;2023-01-15T08:00:20;5.66;83.77
76102;SHT30;64830;46.910;6.354;2023-01-15T08:02:45;5.54;84.09
76102;SHT30;64830;46.910;6.354;2023-01-15T08:05:13;5.47;83.78
76102;SHT30;64830;46.910;6.354;2023-01-15T08:07:40;5.37;84.57
76102;SHT30;64830;46.910;6.354;2023-01-15T08:10:07;5.27;85.24
76102;SHT30;64830;46.910;6.354;2023-01-15T08:12:32;5.16;84.48
76102;SHT30;64830;46.910;6.354;2023-01-15T08:15:16;5.01;84.41
76102;SHT30;64830;46.910;6.354;2023-01-15T08:17:47;4.92;84.48
76102;SHT30;64830;46.910;6.354;2023-01-15T08:20:16;4.82;84.76
76102;SHT30;64830;46.910;6.354;2023-01-15T08:22:43;4.75;84.56
76102;SHT30;64830;46.910;6.354;2023-01-15T08:25:10;4.67;84.91
76102;SHT30;64830;46.910;6.354;2023-01-15T08:27:37;4.61;85.08
76102;SHT30;64830;46.910;6.354;2023-01-15T08:30:07;4.55;85.51
76102;SHT30;64830;46.910;6.354;2023-01-15T08:32:33;4.55;86.01
76102;SHT30;64830;46.910;6.354;2023-01-15T08:34:58;4.54;85.86
76102;SHT30;64830;46.910;6.354;2023-01-15T08:37:24;4.53;86.17
76102;SHT30;64830;46.910;6.354;2023-01-15T08:39:49;4.44;87.30
76102;SHT30;64830;46.910;6.354;2023-01-15T08:42:17;4.33;85.13
76102;SHT30;64830;46.910;6.354;2023-01-15T08:44:43;4.24;84.79
76102;SHT30;64830;46.910;6.354;2023-01-15T08:47:08;4.14;84.63
76102;SHT30;64830;46.910;6.354;2023-01-15T08:49:33;4.00;84.71
76102;SHT30;64830;46.910;6.354;2023-01-15T08:51:59;3.83;84.98
76102;SHT30;64830;46.910;6.354;2023-01-15T08:54:25;3.72;84.79
76102;SHT30;64830;46.910;6.354;2023-01-15T08:56:50;3.68;84.71
76102;SHT30;64830;46.910;6.354;2023-01-15T08:59:16;3.58;84.44
76102;SHT30;64830;46.910;6.354;2023-01-15T09:01:42;3.47;84.48
76102;SHT30;64830;46.910;6.354;2023-01-15T09:04:15;3.37;84.47
76102;SHT30;64830;46.910;6.354;2023-01-15T09:06:41;3.36;84.49
76102;SHT30;64830;46.910;6.354;2023-01-15T09:09:07;3.31;84.55
76102;SHT30;64830;46.910;6.354;2023-01-15T09:11:33;3.24;84.68
76102;SHT30;64830;46.910;6.354;2023-01-15T09:13:58;3.19;84.56
76102;SHT30;64830;46.910;6.354;2023-01-15T09:16:23;3.19;84.75
76102;SHT30;64830;46.910;6.354;2023-01-15T09:18:52;3.13;84.93
76102;SHT30;64830;46.910;6.354;2023-01-15T09:21:18;3.08;85.05
76102;SHT30;64830;46.910;6.354;2023-01-15T09:23:43;3.03;84.79
76102;SHT30;64830;46.910;6.354;2023-01-15T09:26:31;3.02;85.01
76102;SHT30;64830;46.910;6.354;2023-01-15T09:28:58;3.02;85.02
76102;SHT30;64830;46.910;6.354;2023-01-15T09:31:24;3.06;84.81
76102;SHT30;64830;46.910;6.354;2023-01-15T09:33:49;3.00;84.90
76102;SHT30;64830;46.910;6.354;2023-01-15T09:36:17;2.98;84.70
76102;SHT30;64830;46.910;6.354;2023-01-15T09:38:43;2.96;84.91
76102;SHT30;64830;46.910;6.354;2023-01-15T09:41:11;2.98;84.82
76102;SHT30;64830;46.910;6.354;2023-01-15T09:44:16;3.08;84.89
76102;SHT30;64830;46.910;6.354;2023-01-15T09:49:39;3.12;84.45
76102;SHT30;64830;46.910;6.354;2023-01-15T09:54:42;3.15;84.65
76102;SHT30;64830;46.910;6.354;2023-01-15T09:57:12;3.17;84.46
76102;SHT30;64830;46.910;6.354;2023-01-15T09:59:47;3.22;84.30
76102;SHT30;64830;46.910;6.354;2023-01-15T10:02:43;3.22;84.14
76102;SHT30;64830;46.910;6.354;2023-01-15T10:10:21;3.22;84.20
76102;SHT30;64830;46.910;6.354;2023-01-15T10:12:53;3.22;84.39
76102;SHT30;64830;46.910;6.354;2023-01-15T10:15:45;3.20;83.95
76102;SHT30;64830;46.910;6.354;2023-01-15T10:18:23;3.17;84.07
76102;SHT30;64830;46.910;6.354;2023-01-15T10:26:35;2.96;84.68
76102;SHT30;64830;46.910;6.354;2023-01-15T10:31:54;2.91;84.73
76102;SHT30;64830;46.910;6.354;2023-01-15T10:37:34;2.78;85.55
76102;SHT30;64830;46.910;6.354;2023-01-15T10:43:09;2.58;85.81
76102;SHT30;64830;46.910;6.354;2023-01-15T10:45:43;2.55;85.97
76102;SHT30;64830;46.910;6.354;2023-01-15T10:48:18;2.51;86.80
76102;SHT30;64830;46.910;6.354;2023-01-15T10:50:46;2.48;86.97
76102;SHT30;64830;46.910;6.354;2023-01-15T10:55:54;2.46;86.37
76102;SHT30;64830;46.910;6.354;2023-01-15T10:58:42;2.46;86.38
76102;SHT30;64830;46.910;6.354;2023-01-15T11:01:15;2.48;86.17
76102;SHT30;64830;46.910;6.354;2023-01-15T11:03:44;2.54;86.26
76102;SHT30;64830;46.910;6.354;2023-01-15T11:06:17;2.55;86.05
76102;SHT30;64830;46.910;6.354;2023-01-15T11:08:51;2.54;86.09
76102;SHT30;64830;46.910;6.354;2023-01-15T11:14:08;2.48;86.14
76102;SHT30;64830;46.910;6.354;2023-01-15T11:16:52;2.51;85.92
76102;SHT30;64830;46.910;6.354;2023-01-15T11:19:39;2.47;86.29
76102;SHT30;64830;46.910;6.354;2023-01-15T11:22:11;2.48;86.18
76102;SHT30;64830;46.910;6.354;2023-01-15T11:24:50;2.48;86.09
76102;SHT30;64830;46.910;6.354;2023-01-15T11:27:19;2.47;86.02
76102;SHT30;64830;46.910;6.354;2023-01-15T11:29:52;2.43;86.19
76102;SHT30;64830;46.910;6.354;2023-01-15T11:32:28;2.44;85.88
76102;SHT30;64830;46.910;6.354;2023-01-15T11:35:02;2.48;85.96
76102;SHT30;64830;46.910;6.354;2023-01-15T11:37:28;2.47;85.84
76102;SHT30;64830;46.910;6.354;2023-01-15T11:42:20;2.47;85.73
76102;SHT30;64830;46.910;6.354;2023-01-15T11:45:18;2.40;85.88
76102;SHT30;64830;46.910;6.354;2023-01-15T11:48:22;2.41;85.92
76102;SHT30;64830;46.910;6.354;2023-01-15T11:51:14;2.44;86.00
76102;SHT30;64830;46.910;6.354;2023-01-15T11:53:44;2.53;85.80
76102;SHT30;64830;46.910;6.354;2023-01-15T11:56:19;2.55;85.33
76102;SHT30;64830;46.910;6.354;2023-01-15T11:58:48;2.54;85.29
76102;SHT30;64830;46.910;6.354;2023-01-15T12:01:29;2.58;85.30
76102;SHT30;64830;46.910;6.354;2023-01-15T12:03:58;2.57;85.22
76102;SHT30;64830;46.910;6.354;2023-01-15T12:06:25;2.64;85.26
76102;SHT30;64830;46.910;6.354;2023-01-15T12:17:04;2.85;84.10
76102;SHT30;64830;46.910;6.354;2023-01-15T12:19:40;2.88;81.62
76102;SHT30;64830;46.910;6.354;2023-01-15T12:22:27;2.93;82.36
76102;SHT30;64830;46.910;6.354;2023-01-15T12:25:04;2.98;82.30
76102;SHT30;64830;46.910;6.354;2023-01-15T12:30:44;3.15;80.84
76102;SHT30;64830;46.910;6.354;2023-01-15T12:33:46;3.23;81.64
76102;SHT30;64830;46.910;6.354;2023-01-15T12:36:20;3.27;80.99
76102;SHT30;64830;46.910;6.354;2023-01-15T12:38:50;3.23;78.99
76102;SHT30;64830;46.910;6.354;2023-01-15T12:41:35;3.23;79.77
76102;SHT30;64830;46.910;6.354;2023-01-15T12:44:39;3.23;79.78
76102;SHT30;64830;46.910;6.354;2023-01-15T12:47:40;3.20;80.11
76102;SHT30;64830;46.910;6.354;2023-01-15T12:50:27;3.20;80.44
76102;SHT30;64830;46.910;6.354;2023-01-15T12:53:03;3.15;79.71
76102;SHT30;64830;46.910;6.354;2023-01-15T12:55:33;3.16;80.46
76102;SHT30;64830;46.910;6.354;2023-01-15T12:58:04;3.15;81.10
76102;SHT30;64830;46.910;6.354;2023-01-15T13:00:40;3.16;80.37
76102;SHT30;64830;46.910;6.354;2023-01-15T13:03:27;3.10;79.95
76102;SHT30;64830;46.910;6.354;2023-01-15T13:06:00;2.99;80.69
76102;SHT30;64830;46.910;6.354;2023-01-15T13:10:52;3.05;81.11
76102;SHT30;64830;46.910;6.354;2023-01-15T13:13:28;3.17;81.88
76102;SHT30;64830;46.910;6.354;2023-01-15T13:16:09;3.29;81.26
76102;SHT30;64830;46.910;6.354;2023-01-15T13:21:34;3.41;80.98
76102;SHT30;64830;46.910;6.354;2023-01-15T13:32:38;3.67;79.70
76102;SHT30;64830;46.910;6.354;2023-01-15T13:35:29;3.70;79.19
76102;SHT30;64830;46.910;6.354;2023-01-15T13:37:59;3.72;79.72
76102;SHT30;64830;46.910;6.354;2023-01-15T13:40:43;3.78;78.18
76102;SHT30;64830;46.910;6.354;2023-01-15T13:43:32;3.79;78.80
76102;SHT30;64830;46.910;6.354;2023-01-15T13:46:00;3.78;77.86
76102;SHT30;64830;46.910;6.354;2023-01-15T13:51:00;3.67;77.66
76102;SHT30;64830;46.910;6.354;2023-01-15T13:56:03;3.65;78.40
76102;SHT30;64830;46.910;6.354;2023-01-15T13:58:32;3.75;77.76
76102;SHT30;64830;46.910;6.354;2023-01-15T14:01:02;3.71;76.81
76102;SHT30;64830;46.910;6.354;2023-01-15T14:03:30;3.71;76.84
76102;SHT30;64830;46.910;6.354;2023-01-15T14:05:58;3.64;77.08
76102;SHT30;64830;46.910;6.354;2023-01-15T14:08:42;3.70;77.36
76102;SHT30;64830;46.910;6.354;2023-01-15T14:11:31;3.72;76.47
76102;SHT30;64830;46.910;6.354;2023-01-15T14:14:08;3.75;76.49
76102;SHT30;64830;46.910;6.354;2023-01-15T14:19:44;3.79;75.82
76102;SHT30;64830;46.910;6.354;2023-01-15T14:27:47;3.78;76.17
76102;SHT30;64830;46.910;6.354;2023-01-15T14:35:35;3.77;75.17
76102;SHT30;64830;46.910;6.354;2023-01-15T14:38:06;3.70;76.49
76102;SHT30;64830;46.910;6.354;2023-01-15T14:40:34;3.72;77.07
76102;SHT30;64830;46.910;6.354;2023-01-15T14:43:05;3.72;75.96
76102;SHT30;64830;46.910;6.354;2023-01-15T14:48:18;3.71;75.12
76102;SHT30;64830;46.910;6.354;2023-01-15T14:50:45;3.63;75.48
76102;SHT30;64830;46.910;6.354;2023-01-15T14:55:54;3.57;76.48
76102;SHT30;64830;46.910;6.354;2023-01-15T14:58:53;3.54;76.82
76102;SHT30;64830;46.910;6.354;2023-01-15T15:06:21;3.50;77.24
76102;SHT30;64830;46.910;6.354;2023-01-15T15:08:49;3.53;77.69
76102;SHT30;64830;46.910;6.354;2023-01-15T15:11:23;3.51;76.69
76102;SHT30;64830;46.910;6.354;2023-01-15T15:14:08;3.48;77.20
76102;SHT30;64830;46.910;6.354;2023-01-15T15:16:42;3.47;76.51
76102;SHT30;64830;46.910;6.354;2023-01-15T15:19:28;3.46;77.27
76102;SHT30;64830;46.910;6.354;2023-01-15T15:21:58;3.48;77.46
76102;SHT30;64830;46.910;6.354;2023-01-15T15:24:32;3.47;77.40
76102;SHT30;64830;46.910;6.354;2023-01-15T15:29:40;3.51;77.51
76102;SHT30;64830;46.910;6.354;2023-01-15T15:32:16;3.51;77.32
76102;SHT30;64830;46.910;6.354;2023-01-15T15:34:44;3.48;77.47
76102;SHT30;64830;46.910;6.354;2023-01-15T15:37:26;3.43;77.54
76102;SHT30;64830;46.910;6.354;2023-01-15T15:40:04;3.38;77.45
76102;SHT30;64830;46.910;6.354;2023-01-15T15:45:54;3.33;77.58
76102;SHT30;64830;46.910;6.354;2023-01-15T15:48:38;3.31;77.34
76102;SHT30;64830;46.910;6.354;2023-01-15T15:59:33;3.15;77.19
76102;SHT30;64830;46.910;6.354;2023-01-15T16:04:58;3.06;77.54
76102;SHT30;64830;46.910;6.354;2023-01-15T16:07:32;3.05;77.60
76102;SHT30;64830;46.910;6.354;2023-01-15T16:10:14;3.00;77.71
76102;SHT30;64830;46.910;6.354;2023-01-15T16:12:47;2.99;77.98
76102;SHT30;64830;46.910;6.354;2023-01-15T16:15:15;2.98;77.82
76102;SHT30;64830;46.910;6.354;2023-01-15T16:17:42;2.92;77.43
76102;SHT30;64830;46.910;6.354;2023-01-15T16:20:13;2.92;77.65
76102;SHT30;64830;46.910;6.354;2023-01-15T16:22:48;2.91;77.69
76102;SHT30;64830;46.910;6.354;2023-01-15T16:25:33;2.89;78.12
76102;SHT30;64830;46.910;6.354;2023-01-15T16:28:00;2.85;77.96
76102;SHT30;64830;46.910;6.354;2023-01-15T16:30:28;2.84;78.32
76102;SHT30;64830;46.910;6.354;2023-01-15T16:32:54;2.82;78.88
76102;SHT30;64830;46.910;6.354;2023-01-15T16:35:24;2.81;78.74
76102;SHT30;64830;46.910;6.354;2023-01-15T16:37:56;2.77;79.20
76102;SHT30;64830;46.910;6.354;2023-01-15T16:40:34;2.71;79.47
76102;SHT30;64830;46.910;6.354;2023-01-15T16:43:17;2.66;79.16
76102;SHT30;64830;46.910;6.354;2023-01-15T16:48:32;2.57;79.91
76102;SHT30;64830;46.910;6.354;2023-01-15T16:51:34;2.47;79.98
76102;SHT30;64830;46.910;6.354;2023-01-15T16:54:04;2.41;80.29
76102;SHT30;64830;46.910;6.354;2023-01-15T16:59:14;2.36;80.36
76102;SHT30;64830;46.910;6.354;2023-01-15T17:01:41;2.33;80.24
76102;SHT30;64830;46.910;6.354;2023-01-15T17:04:36;2.30;80.29
76102;SHT30;64830;46.910;6.354;2023-01-15T17:10:04;2.23;80.49
76102;SHT30;64830;46.910;6.354;2023-01-15T17:12:34;2.23;80.17
76102;SHT30;64830;46.910;6.354;2023-01-15T17:17:40;2.19;79.93
76102;SHT30;64830;46.910;6.354;2023-01-15T17:20:10;2.15;80.16
76102;SHT30;64830;46.910;6.354;2023-01-15T17:22:37;2.18;79.42
76102;SHT30;64830;46.910;6.354;2023-01-15T17:25:28;2.15;79.35
76102;SHT30;64830;46.910;6.354;2023-01-15T17:28:00;2.16;79.50
76102;SHT30;64830;46.910;6.354;2023-01-15T17:30:26;2.12;79.52
76102;SHT30;64830;46.910;6.354;2023-01-15T17:33:00;2.10;79.63
76102;SHT30;64830;46.910;6.354;2023-01-15T17:35:28;2.12;79.98
76102;SHT30;64830;46.910;6.354;2023-01-15T17:37:54;2.10;80.08
76102;SHT30;64830;46.910;6.354;2023-01-15T17:40:20;2.06;80.03
76102;SHT30;64830;46.910;6.354;2023-01-15T17:42:46;2.06;80.09
76102;SHT30;64830;46.910;6.354;2023-01-15T17:45:21;2.05;80.29
76102;SHT30;64830;46.910;6.354;2023-01-15T17:47:47;2.02;80.13
76102;SHT30;64830;46.910;6.354;2023-01-15T17:50:13;2.02;79.89
76102;SHT30;64830;46.910;6.354;2023-01-15T17:52:39;1.99;79.66
76102;SHT30;64830;46.910;6.354;2023-01-15T17:55:05;2.01;79.91
76102;SHT30;64830;46.910;6.354;2023-01-15T17:57:49;2.01;80.19
76102;SHT30;64830;46.910;6.354;2023-01-15T18:00:33;1.99;80.00
76102;SHT30;64830;46.910;6.354;2023-01-15T18:03:19;1.99;79.85
76102;SHT30;64830;46.910;6.354;2023-01-15T18:06:05;1.99;79.91
76102;SHT30;64830;46.910;6.354;2023-01-15T18:08:32;1.97;79.75
76102;SHT30;64830;46.910;6.354;2023-01-15T18:10:58;1.98;79.77
76102;SHT30;64830;46.910;6.354;2023-01-15T18:13:23;1.95;80.00
76102;SHT30;64830;46.910;6.354;2023-01-15T18:15:48;1.98;79.68
76102;SHT30;64830;46.910;6.354;2023-01-15T18:18:15;1.97;79.48
76102;SHT30;64830;46.910;6.354;2023-01-15T18:20:41;1.97;79.71
76102;SHT30;64830;46.910;6.354;2023-01-15T18:23:06;1.97;79.61
76102;SHT30;64830;46.910;6.354;2023-01-15T18:25:33;1.94;79.47
76102;SHT30;64830;46.910;6.354;2023-01-15T18:27:58;1.89;79.66
76102;SHT30;64830;46.910;6.354;2023-01-15T18:30:24;1.89;79.63